createdAt,value
2019-03-20T00:01:59.445Z,82.70
2019-03-20T00:07:04.042Z,82.80
2019-03-20T00:12:08.120Z,82.80
2019-03-20T00:17:11.758Z,82.80
2019-03-20T00:22:15.432Z,83.00
2019-03-20T00:27:18.761Z,83.00
2019-03-20T00:32:23.764Z,83.00
2019-03-20T00:37:27.168Z,83.10
2019-03-20T00:42:30.562Z,83.00
2019-03-20T00:47:33.976Z,83.20
2019-03-20T00:52:38.142Z,83.40
2019-03-20T00:57:41.622Z,84.00
2019-03-20T01:02:45.017Z,84.80
2019-03-20T01:07:49.027Z,85.10
2019-03-20T01:12:53.317Z,84.60
2019-03-20T01:17:59.073Z,85.00
2019-03-20T01:23:04.069Z,85.30
2019-03-20T01:28:07.445Z,85.30
2019-03-20T01:33:12.166Z,85.70
2019-03-20T01:38:15.920Z,85.80
2019-03-20T01:43:19.301Z,86.00
2019-03-20T01:48:22.721Z,86.40
2019-03-20T01:53:27.919Z,86.60
2019-03-20T01:58:34.782Z,87.10
2019-03-20T02:03:38.093Z,87.00
2019-03-20T02:08:42.543Z,87.20
2019-03-20T02:13:45.969Z,87.30
2019-03-20T02:18:49.308Z,87.50
2019-03-20T02:23:52.807Z,87.60
2019-03-20T02:28:57.547Z,87.80
2019-03-20T02:34:01.832Z,88.00
2019-03-20T02:39:07.438Z,88.20
2019-03-20T02:44:12.294Z,88.30
2019-03-20T02:49:17.758Z,88.40
2019-03-20T02:54:22.330Z,88.70
2019-03-20T02:59:25.788Z,88.90
2019-03-20T03:04:30.876Z,89.10
2019-03-20T03:09:34.199Z,89.20
2019-03-20T03:14:37.524Z,89.40
2019-03-20T03:19:41.428Z,89.70
2019-03-20T03:24:46.137Z,89.50
2019-03-20T03:29:49.660Z,89.20
2019-03-20T03:34:53.058Z,89.20
2019-03-20T03:39:56.464Z,89.20
2019-03-20T03:45:00.583Z,89.00
2019-03-20T03:50:05.674Z,88.90
2019-03-20T03:55:11.403Z,89.40
2019-03-20T04:00:21.800Z,89.50
2019-03-20T04:05:30.567Z,89.80
2019-03-20T04:10:34.432Z,89.70
2019-03-20T04:15:45.820Z,90.00
2019-03-20T04:20:49.551Z,90.00
2019-03-20T04:25:54.350Z,90.10
2019-03-20T04:30:58.576Z,90.20
2019-03-20T04:36:02.038Z,90.40
2019-03-20T04:41:05.494Z,90.60
2019-03-20T04:46:08.812Z,90.70
2019-03-20T04:51:12.143Z,90.80
2019-03-20T04:56:17.454Z,90.90
2019-03-20T05:01:20.945Z,91.00
2019-03-20T05:06:25.014Z,90.90
2019-03-20T05:11:29.513Z,90.90
2019-03-20T05:16:34.715Z,91.10
2019-03-20T05:21:38.180Z,91.20
2019-03-20T05:26:41.583Z,91.30
2019-03-20T05:31:46.373Z,91.30
2019-03-20T05:36:50.518Z,91.20
2019-03-20T05:41:53.830Z,91.10
2019-03-20T05:46:57.254Z,91.00
2019-03-20T05:52:01.147Z,90.80
2019-03-20T05:57:07.756Z,90.70
2019-03-20T06:02:15.863Z,90.40
2019-03-20T06:07:21.719Z,90.30
2019-03-20T06:12:31.918Z,90.10
2019-03-20T06:17:37.386Z,89.80
2019-03-20T06:22:52.736Z,88.60
2019-03-20T06:27:56.166Z,88.70
2019-03-20T06:33:01.182Z,87.70
2019-03-20T06:38:04.656Z,83.80
2019-03-20T06:43:08.693Z,82.10
2019-03-20T06:48:14.152Z,81.60
2019-03-20T06:53:21.170Z,81.10
2019-03-20T06:58:24.855Z,81.40
2019-03-20T07:03:45.500Z,80.50
2019-03-20T07:08:58.839Z,78.80
2019-03-20T07:14:04.441Z,76.50
2019-03-20T07:19:08.904Z,76.30
2019-03-20T07:24:12.355Z,75.40
2019-03-20T07:29:24.594Z,75.10
2019-03-20T07:34:23.327Z,74.30
2019-03-20T07:39:28.444Z,73.60
2019-03-20T07:44:31.863Z,72.60
2019-03-20T07:49:35.402Z,71.60
2019-03-20T07:54:38.767Z,71.00
2019-03-20T07:59:42.197Z,70.80
2019-03-20T08:04:45.621Z,69.80
2019-03-20T08:09:49.150Z,69.60
2019-03-20T08:14:53.203Z,69.30
2019-03-20T08:19:56.503Z,68.60
2019-03-20T08:24:59.818Z,67.90
2019-03-20T08:30:05.057Z,66.70
2019-03-20T08:35:10.513Z,66.10
2019-03-20T08:40:18.810Z,63.30
2019-03-20T08:45:22.203Z,59.30
2019-03-20T08:50:26.329Z,50.00
2019-03-20T08:55:29.614Z,44.80
2019-03-20T09:00:33.313Z,39.60
2019-03-20T09:05:38.003Z,38.10
2019-03-20T09:10:41.384Z,34.20
2019-03-20T09:15:46.803Z,32.90
2019-03-20T09:20:51.106Z,29.80
2019-03-20T09:25:54.547Z,29.10
2019-03-20T09:30:57.858Z,28.50
2019-03-20T09:36:01.908Z,27.40
2019-03-20T09:41:05.443Z,25.80
2019-03-20T09:46:08.874Z,26.60
2019-03-20T09:51:12.181Z,25.50
2019-03-20T09:56:16.956Z,21.90
2019-03-20T10:01:20.599Z,17.90
2019-03-20T10:06:23.992Z,15.30
2019-03-20T10:11:27.366Z,14.10
2019-03-20T10:16:31.464Z,16.60
2019-03-20T10:21:34.960Z,15.20
2019-03-20T10:26:38.373Z,18.60
2019-03-20T10:31:43.751Z,22.90
2019-03-20T10:36:47.135Z,27.70
2019-03-20T10:41:50.452Z,31.60
2019-03-20T10:46:54.392Z,34.90
2019-03-20T10:52:00.069Z,29.50
2019-03-20T10:57:03.440Z,25.80
2019-03-20T11:02:06.728Z,28.70
2019-03-20T11:07:10.122Z,31.40
2019-03-20T11:12:13.522Z,30.00
2019-03-20T11:17:18.618Z,33.30
2019-03-20T11:22:23.567Z,31.30
2019-03-20T11:27:52.190Z,32.70
2019-03-20T11:32:56.710Z,36.30
2019-03-20T11:38:02.690Z,28.50
2019-03-20T11:43:06.916Z,23.60
2019-03-20T11:48:10.313Z,17.50
2019-03-20T11:53:13.730Z,16.50
2019-03-20T11:58:17.616Z,21.90
2019-03-20T12:03:21.889Z,20.90
2019-03-20T12:08:26.075Z,15.00
2019-03-20T12:13:30.356Z,12.20
2019-03-20T12:18:33.649Z,10.20
2019-03-20T12:23:36.947Z,10.40
2019-03-20T12:28:40.368Z,10.80
2019-03-20T12:33:44.516Z,11.60
2019-03-20T12:38:47.872Z,13.80
2019-03-20T12:43:51.214Z,12.60
2019-03-20T12:48:54.515Z,12.20
2019-03-20T12:53:57.856Z,11.50
2019-03-20T12:59:02.812Z,11.00
2019-03-20T13:04:06.193Z,9.90
2019-03-20T13:09:09.507Z,10.40
2019-03-20T13:14:13.749Z,9.80
2019-03-20T13:19:17.173Z,9.50
2019-03-20T13:24:22.841Z,11.00
2019-03-20T13:29:26.147Z,16.20
2019-03-20T13:34:29.649Z,17.30
2019-03-20T13:39:32.965Z,16.20
2019-03-20T13:44:37.461Z,19.20
2019-03-20T13:49:40.769Z,22.40
2019-03-20T13:54:44.249Z,25.10
2019-03-20T13:59:48.053Z,27.40
2019-03-20T14:04:52.590Z,29.50
2019-03-20T14:09:55.916Z,30.00
2019-03-20T14:15:02.711Z,32.30
2019-03-20T14:20:14.924Z,33.30
2019-03-20T14:25:20.613Z,34.40
2019-03-20T14:30:31.061Z,35.10
2019-03-20T14:35:34.459Z,36.70
2019-03-20T14:40:38.341Z,37.10
2019-03-20T14:45:42.553Z,38.00
2019-03-20T14:50:47.189Z,38.60
2019-03-20T14:55:50.613Z,38.90
2019-03-20T15:00:54.274Z,39.60
2019-03-20T15:05:57.636Z,40.30
2019-03-20T15:11:00.994Z,40.70
2019-03-20T15:16:08.844Z,38.60
2019-03-20T15:21:12.240Z,39.90
2019-03-20T15:26:16.426Z,40.30
2019-03-20T15:31:19.864Z,41.40
2019-03-20T15:36:24.713Z,42.50
2019-03-20T15:41:28.389Z,42.40
2019-03-20T15:46:31.697Z,42.90
2019-03-20T15:51:36.868Z,43.80
2019-03-20T15:56:40.305Z,43.60
2019-03-20T16:01:44.192Z,43.40
2019-03-20T16:06:48.051Z,43.10
2019-03-20T16:11:52.941Z,42.80
2019-03-20T16:16:58.114Z,43.30
2019-03-20T16:22:03.183Z,43.80
2019-03-20T16:27:17.818Z,44.60
2019-03-20T16:32:21.931Z,44.90
2019-03-20T16:37:25.692Z,45.40
2019-03-20T16:42:44.548Z,46.10
2019-03-20T16:47:48.379Z,46.80
2019-03-20T16:52:52.648Z,47.60
2019-03-20T16:57:58.428Z,47.90
2019-03-20T17:03:03.874Z,48.60
2019-03-20T17:08:08.128Z,49.20
2019-03-20T17:13:11.436Z,49.50
2019-03-20T17:18:15.852Z,50.10
2019-03-20T17:23:20.941Z,50.30
2019-03-20T17:28:25.674Z,50.50
2019-03-20T17:33:29.942Z,50.80
2019-03-20T17:38:33.800Z,50.90
2019-03-20T17:43:41.216Z,51.20
2019-03-20T17:48:47.050Z,51.40
2019-03-20T17:53:50.458Z,51.60
2019-03-20T17:58:55.287Z,51.70
2019-03-20T18:03:58.708Z,52.20
2019-03-20T18:09:02.015Z,52.40
2019-03-20T18:14:05.439Z,52.50
2019-03-20T18:19:12.088Z,52.70
2019-03-20T18:24:15.454Z,52.70
2019-03-20T18:29:19.601Z,52.70
2019-03-20T18:34:23.483Z,52.80
2019-03-20T18:39:27.349Z,52.80
2019-03-20T18:44:30.700Z,52.80
2019-03-20T18:49:34.070Z,52.90
2019-03-20T18:54:37.561Z,53.00
2019-03-20T18:59:41.987Z,52.80
2019-03-20T19:04:46.369Z,53.00
2019-03-20T19:09:53.667Z,53.20
2019-03-20T19:14:57.264Z,53.50
2019-03-20T19:20:01.534Z,53.70
2019-03-20T19:25:14.860Z,54.20
2019-03-20T19:30:21.519Z,54.30
2019-03-20T19:35:25.771Z,54.20
2019-03-20T19:40:34.668Z,54.40
2019-03-20T19:45:38.029Z,54.70
2019-03-20T19:50:41.590Z,54.80
2019-03-20T19:55:45.481Z,54.50
2019-03-20T20:00:51.324Z,54.20
2019-03-20T20:05:56.355Z,53.90
2019-03-20T20:10:59.737Z,53.90
2019-03-20T20:16:03.131Z,53.90
2019-03-20T20:21:07.217Z,53.90
2019-03-20T20:26:13.302Z,53.90
2019-03-20T20:31:16.907Z,53.90
2019-03-20T20:36:21.715Z,54.00
2019-03-20T20:41:25.306Z,53.90
2019-03-20T20:46:28.733Z,53.90
2019-03-20T20:51:32.156Z,53.80
2019-03-20T20:56:37.265Z,53.80
2019-03-20T21:01:41.578Z,53.70
2019-03-20T21:06:47.590Z,53.70
2019-03-20T21:11:52.763Z,53.70
2019-03-20T21:16:57.960Z,53.70
2019-03-20T21:22:17.066Z,53.70
2019-03-20T21:27:42.700Z,53.80
2019-03-20T21:32:52.750Z,54.60
2019-03-20T21:38:07.683Z,53.90
2019-03-20T21:43:49.802Z,53.90
2019-03-20T21:48:53.206Z,53.90
2019-03-20T21:54:14.708Z,53.80
2019-03-20T21:59:42.053Z,53.80
2019-03-20T22:04:46.451Z,53.70
2019-03-20T22:09:56.020Z,53.50
2019-03-20T22:15:06.397Z,53.30
2019-03-20T22:20:22.164Z,53.20
2019-03-20T22:25:51.298Z,53.30
2019-03-20T22:30:54.783Z,53.30
2019-03-20T22:35:59.912Z,53.90
2019-03-20T22:41:15.488Z,53.20
2019-03-20T22:46:57.252Z,53.20
2019-03-20T22:52:10.224Z,53.10
2019-03-20T22:57:35.021Z,53.20
2019-03-20T23:02:56.858Z,53.30
2019-03-20T23:08:00.835Z,53.30
2019-03-20T23:13:04.574Z,53.20
2019-03-20T23:18:08.093Z,53.10
2019-03-20T23:23:11.584Z,52.90
2019-03-20T23:28:15.097Z,52.80
2019-03-20T23:33:18.475Z,52.60
2019-03-20T23:38:22.403Z,52.70
2019-03-20T23:43:25.710Z,52.70
2019-03-20T23:48:35.681Z,52.60
2019-03-20T23:53:42.676Z,52.50
2019-03-20T23:58:46.617Z,52.50
